createdAt,value
2019-04-21T00:00:39.687Z,14.17
2019-04-21T00:03:19.397Z,14.95
2019-04-21T00:06:07.614Z,15.05
2019-04-21T00:13:28.263Z,13.60
2019-04-21T00:15:53.231Z,13.78
2019-04-21T00:18:39.658Z,14.73
2019-04-21T00:21:12.271Z,14.98
2019-04-21T00:23:51.504Z,16.20
2019-04-21T00:26:22.644Z,14.05
2019-04-21T00:29:02.012Z,16.02
2019-04-21T00:31:24.757Z,14.93
2019-04-21T00:33:39.486Z,15.78
2019-04-21T00:36:13.176Z,20.00
2019-04-21T00:39:09.926Z,16.75
2019-04-21T00:41:32.155Z,12.30
2019-04-21T00:43:55.998Z,14.20
2019-04-21T00:46:26.721Z,16.05
2019-04-21T00:49:01.616Z,17.75
2019-04-21T00:51:47.043Z,17.73
2019-04-21T00:54:13.454Z,18.70
2019-04-21T00:56:46.711Z,16.60
2019-04-21T00:59:16.366Z,17.25
2019-04-21T01:01:45.400Z,14.23
2019-04-21T01:04:15.288Z,15.78
2019-04-21T01:06:53.129Z,17.87
2019-04-21T01:09:13.541Z,15.28
2019-04-21T01:11:50.544Z,17.35
2019-04-21T01:14:22.268Z,15.75
2019-04-21T01:16:51.465Z,17.37
2019-04-21T01:19:17.330Z,16.30
2019-04-21T01:21:29.162Z,15.90
2019-04-21T01:24:07.824Z,21.95
2019-04-21T01:26:42.582Z,20.07
2019-04-21T01:29:15.513Z,16.70
2019-04-21T01:31:51.239Z,16.83
2019-04-21T01:34:24.898Z,19.75
2019-04-21T01:36:53.038Z,17.35
2019-04-21T01:39:28.791Z,19.15
2019-04-21T01:41:58.832Z,17.20
2019-04-21T01:44:38.762Z,19.10
2019-04-21T01:46:56.361Z,19.73
2019-04-21T01:49:22.815Z,19.45
2019-04-21T01:52:10.770Z,19.43
2019-04-21T01:55:00.622Z,19.42
2019-04-21T01:57:46.985Z,18.50
2019-04-21T02:00:13.569Z,20.17
2019-04-21T02:02:59.304Z,20.37
2019-04-21T02:05:34.537Z,21.57
2019-04-21T02:07:55.406Z,20.75
2019-04-21T02:10:34.690Z,21.05
2019-04-21T02:13:02.137Z,20.25
2019-04-21T02:15:31.185Z,19.67
2019-04-21T02:18:02.397Z,22.02
2019-04-21T02:20:23.020Z,21.20
2019-04-21T02:25:53.782Z,21.93
2019-04-21T02:28:13.465Z,21.07
2019-04-21T02:31:01.138Z,21.90
2019-04-21T02:33:27.870Z,21.05
2019-04-21T02:38:30.762Z,21.40
2019-04-21T02:40:49.533Z,21.27
2019-04-21T02:45:55.946Z,21.13
2019-04-21T02:53:35.345Z,20.75
2019-04-21T02:56:00.552Z,22.23
2019-04-21T02:58:34.685Z,21.33
2019-04-21T03:04:00.049Z,21.05
2019-04-21T03:09:29.752Z,20.50
2019-04-21T03:12:05.583Z,21.30
2019-04-21T03:14:41.359Z,23.70
2019-04-21T03:16:58.216Z,22.90
2019-04-21T03:19:41.668Z,23.70
2019-04-21T03:22:05.143Z,21.95
2019-04-21T03:24:41.788Z,22.07
2019-04-21T03:27:10.393Z,25.88
2019-04-21T03:34:57.788Z,24.95
2019-04-21T03:37:13.609Z,24.57
2019-04-21T03:42:22.290Z,24.67
2019-04-21T03:44:42.220Z,24.92
2019-04-21T03:47:15.419Z,24.55
2019-04-21T03:49:49.644Z,24.52
2019-04-21T03:52:19.836Z,25.77
2019-04-21T03:58:05.512Z,27.85
2019-04-21T04:08:50.019Z,24.40
2019-04-21T04:13:55.636Z,24.82
2019-04-21T04:21:32.367Z,25.68
2019-04-21T04:23:55.323Z,26.05
2019-04-21T04:26:29.242Z,24.72
2019-04-21T04:28:54.261Z,28.57
2019-04-21T04:31:31.903Z,24.43
2019-04-21T04:36:38.831Z,24.97
2019-04-21T04:39:43.883Z,29.18
2019-04-21T04:42:27.525Z,25.60
2019-04-21T04:44:54.248Z,26.10
2019-04-21T04:47:18.277Z,30.68
2019-04-21T04:53:01.593Z,33.25
2019-04-21T04:59:48.000Z,30.68
2019-04-21T05:07:33.783Z,28.87
2019-04-21T05:09:52.405Z,27.67
2019-04-21T05:12:24.983Z,29.32
2019-04-21T05:17:37.893Z,25.77
2019-04-21T05:24:52.735Z,28.83
2019-04-21T05:27:34.998Z,28.15
2019-04-21T05:30:21.971Z,28.27
2019-04-21T05:33:03.624Z,27.90
2019-04-21T05:35:49.489Z,26.73
2019-04-21T05:38:27.278Z,29.10
2019-04-21T05:40:57.614Z,30.30
2019-04-21T05:43:32.608Z,27.50
2019-04-21T05:46:10.444Z,26.35
2019-04-21T05:48:39.494Z,27.42
2019-04-21T05:51:03.572Z,27.80
2019-04-21T05:53:41.815Z,26.48
2019-04-21T05:56:15.979Z,27.15
2019-04-21T05:58:43.645Z,28.50
2019-04-21T06:01:23.883Z,27.25
2019-04-21T06:03:54.972Z,27.32
2019-04-21T06:06:20.709Z,28.60
2019-04-21T06:08:49.665Z,24.63
2019-04-21T06:13:55.532Z,23.83
2019-04-21T06:16:34.485Z,27.50
2019-04-21T06:21:28.116Z,26.52
2019-04-21T06:23:56.974Z,27.70
2019-04-21T06:26:56.254Z,27.20
2019-04-21T06:28:59.656Z,26.35
2019-04-21T06:32:08.823Z,25.52
2019-04-21T06:34:06.323Z,26.30
2019-04-21T06:36:50.609Z,28.05
2019-04-21T06:39:48.270Z,27.35
2019-04-21T06:41:45.464Z,26.23
2019-04-21T06:44:23.975Z,27.02
2019-04-21T06:46:51.092Z,27.13
2019-04-21T06:49:22.294Z,26.45
2019-04-21T06:51:58.215Z,27.48
2019-04-21T06:54:30.619Z,27.50
2019-04-21T06:57:12.010Z,27.48
2019-04-21T06:59:28.085Z,24.87
2019-04-21T07:02:08.283Z,27.25
2019-04-21T07:04:29.593Z,29.15
2019-04-21T07:06:59.500Z,24.98
2019-04-21T07:09:34.149Z,30.27
2019-04-21T07:12:00.001Z,27.90
2019-04-21T07:14:31.954Z,31.33
2019-04-21T07:17:12.622Z,32.60
2019-04-21T07:19:40.929Z,29.77
2019-04-21T07:22:15.901Z,28.87
2019-04-21T07:24:41.947Z,29.67
2019-04-21T07:27:10.251Z,26.52
2019-04-21T07:29:39.973Z,29.57
2019-04-21T07:32:12.186Z,31.82
2019-04-21T07:34:47.987Z,42.88
2019-04-21T07:37:10.293Z,28.05
2019-04-21T07:39:39.756Z,29.50
2019-04-21T07:42:09.045Z,30.88
2019-04-21T07:44:40.882Z,27.32
2019-04-21T07:47:17.102Z,31.23
2019-04-21T07:50:08.790Z,31.45
2019-04-21T07:52:53.259Z,28.20
2019-04-21T07:57:33.083Z,26.77
2019-04-21T08:02:47.661Z,31.45
2019-04-21T08:05:13.460Z,33.65
2019-04-21T08:10:14.010Z,24.63
2019-04-21T08:12:36.357Z,26.67
2019-04-21T08:15:21.749Z,25.02
2019-04-21T08:17:42.174Z,28.77
2019-04-21T08:20:14.272Z,27.60
2019-04-21T08:30:23.741Z,26.23
2019-04-21T08:33:05.381Z,26.52
2019-04-21T08:35:48.623Z,25.02
2019-04-21T08:37:59.207Z,27.00
2019-04-21T08:40:31.666Z,23.85
2019-04-21T08:43:12.229Z,24.25
2019-04-21T08:45:45.346Z,25.65
2019-04-21T08:48:12.141Z,24.70
2019-04-21T08:50:45.928Z,28.07
2019-04-21T08:53:13.768Z,28.55
2019-04-21T08:59:00.717Z,27.93
2019-04-21T09:04:08.445Z,25.80
2019-04-21T09:06:54.136Z,25.23
2019-04-21T09:09:11.349Z,26.87
2019-04-21T09:11:46.161Z,26.52
2019-04-21T09:14:13.760Z,26.12
2019-04-21T09:16:44.391Z,27.27
2019-04-21T09:19:24.354Z,24.27
2019-04-21T09:21:59.505Z,22.87
2019-04-21T09:24:22.909Z,28.00
2019-04-21T09:26:51.468Z,28.43
2019-04-21T09:29:17.205Z,27.30
2019-04-21T09:31:41.818Z,25.00
2019-04-21T09:34:16.377Z,25.80
2019-04-21T09:36:46.685Z,24.23
2019-04-21T09:39:18.318Z,22.42
2019-04-21T09:44:22.065Z,23.92
2019-04-21T09:46:53.879Z,25.13
2019-04-21T09:49:22.570Z,22.13
2019-04-21T09:51:50.510Z,24.53
2019-04-21T09:54:24.778Z,25.35
2019-04-21T09:56:57.677Z,23.05
2019-04-21T09:59:28.198Z,23.57
2019-04-21T10:02:03.668Z,26.30
2019-04-21T10:04:24.460Z,20.50
2019-04-21T10:06:54.425Z,21.02
2019-04-21T10:09:24.247Z,20.27
2019-04-21T10:11:54.892Z,24.60
2019-04-21T10:14:24.424Z,24.43
2019-04-21T10:17:13.180Z,25.08
2019-04-21T10:19:43.846Z,25.60
2019-04-21T10:22:14.833Z,21.70
2019-04-21T10:24:44.651Z,19.92
2019-04-21T10:27:14.773Z,21.05
2019-04-21T10:29:45.375Z,20.80
2019-04-21T10:32:15.544Z,21.77
2019-04-21T10:34:45.318Z,24.20
2019-04-21T10:37:14.727Z,23.63
2019-04-21T10:39:45.270Z,19.48
2019-04-21T10:42:15.488Z,21.15
2019-04-21T10:44:45.242Z,23.47
2019-04-21T10:47:14.637Z,23.20
2019-04-21T10:49:44.795Z,25.45
2019-04-21T10:52:19.469Z,20.92
2019-04-21T10:55:14.204Z,23.77
2019-04-21T10:57:24.494Z,23.13
2019-04-21T10:59:56.046Z,20.48
2019-04-21T11:02:32.912Z,24.90
2019-04-21T11:05:02.951Z,24.87
2019-04-21T11:08:01.229Z,25.30
2019-04-21T11:10:20.415Z,21.83
2019-04-21T11:12:50.711Z,26.25
2019-04-21T11:15:21.164Z,21.63
2019-04-21T11:17:50.772Z,22.20
2019-04-21T11:20:22.823Z,20.17
2019-04-21T11:22:53.568Z,20.95
2019-04-21T11:25:24.296Z,23.40
2019-04-21T11:27:55.234Z,21.62
2019-04-21T11:30:25.612Z,20.60
2019-04-21T11:32:55.317Z,18.90
2019-04-21T11:35:25.495Z,17.77
2019-04-21T11:38:04.611Z,21.23
2019-04-21T11:42:56.068Z,20.80
2019-04-21T11:45:34.736Z,19.62
2019-04-21T11:48:10.512Z,18.92
2019-04-21T11:50:41.248Z,18.48
2019-04-21T11:53:10.797Z,17.73
2019-04-21T11:55:43.572Z,16.15
2019-04-21T11:58:11.867Z,19.12
2019-04-21T12:00:42.157Z,22.35
2019-04-21T12:03:14.002Z,20.92
2019-04-21T12:05:43.495Z,15.73
2019-04-21T12:08:22.974Z,19.37
2019-04-21T12:10:45.039Z,17.95
2019-04-21T12:13:14.411Z,18.70
2019-04-21T12:15:45.076Z,19.77
2019-04-21T12:18:15.517Z,17.23
2019-04-21T12:20:45.197Z,19.05
2019-04-21T12:23:14.517Z,15.80
2019-04-21T12:25:47.261Z,17.23
2019-04-21T12:28:17.407Z,18.05
2019-04-21T12:30:49.655Z,18.62
2019-04-21T12:33:34.216Z,19.30
2019-04-21T12:36:03.957Z,14.78
2019-04-21T12:38:41.432Z,15.50
2019-04-21T12:41:04.727Z,14.87
2019-04-21T12:43:34.852Z,15.78
2019-04-21T12:46:04.652Z,13.45
2019-04-21T12:48:34.027Z,15.38
2019-04-21T12:51:03.926Z,15.95
2019-04-21T12:53:33.965Z,15.50
2019-04-21T12:56:03.720Z,16.93
2019-04-21T12:58:33.221Z,16.00
2019-04-21T13:01:03.034Z,19.32
2019-04-21T13:03:32.584Z,15.63
2019-04-21T13:06:03.194Z,16.42
2019-04-21T13:08:48.847Z,15.53
2019-04-21T13:11:04.421Z,15.77
2019-04-21T13:13:33.838Z,15.65
2019-04-21T13:16:03.259Z,18.80
2019-04-21T13:18:35.438Z,15.70
2019-04-21T13:21:12.027Z,15.20
2019-04-21T13:23:43.564Z,18.35
2019-04-21T13:26:13.211Z,17.93
2019-04-21T13:28:42.651Z,18.98
2019-04-21T13:31:16.155Z,17.30
2019-04-21T13:33:50.160Z,15.28
2019-04-21T13:36:23.416Z,15.20
2019-04-21T13:39:42.370Z,15.03
2019-04-21T13:41:59.335Z,16.25
2019-04-21T13:44:16.338Z,17.45
2019-04-21T13:46:52.477Z,15.45
2019-04-21T13:49:39.244Z,14.10
2019-04-21T13:52:15.049Z,20.73
2019-04-21T13:54:45.525Z,16.75
2019-04-21T13:57:16.813Z,15.48
2019-04-21T13:59:49.434Z,15.85
2019-04-21T14:02:20.830Z,16.75
2019-04-21T14:04:51.793Z,14.55
2019-04-21T14:07:23.948Z,17.12
2019-04-21T14:10:02.570Z,17.27
2019-04-21T14:12:31.639Z,17.60
2019-04-21T14:15:02.308Z,15.10
2019-04-21T14:17:32.862Z,15.63
2019-04-21T14:20:03.486Z,18.67
2019-04-21T14:22:35.988Z,19.27
2019-04-21T14:27:39.245Z,15.63
2019-04-21T14:30:12.279Z,16.75
2019-04-21T14:32:44.329Z,16.07
2019-04-21T14:35:14.787Z,16.03
2019-04-21T14:37:46.741Z,15.63
2019-04-21T14:40:42.025Z,14.47
2019-04-21T14:43:14.308Z,16.62
2019-04-21T14:46:09.124Z,14.65
2019-04-21T14:48:59.317Z,15.00
2019-04-21T14:51:52.666Z,16.60
2019-04-21T14:54:40.451Z,15.98
2019-04-21T14:57:09.796Z,14.70
2019-04-21T14:59:39.284Z,14.73
2019-04-21T15:02:11.772Z,14.43
2019-04-21T15:04:44.226Z,14.70
2019-04-21T15:07:19.214Z,15.38
2019-04-21T15:10:01.652Z,16.05
2019-04-21T15:12:20.728Z,15.07
2019-04-21T15:14:51.915Z,13.28
2019-04-21T15:17:24.389Z,13.93
2019-04-21T15:19:59.722Z,16.73
2019-04-21T15:22:38.618Z,16.60
2019-04-21T15:25:12.027Z,15.32
2019-04-21T15:27:50.828Z,16.40
2019-04-21T15:30:23.233Z,15.57
2019-04-21T15:32:58.101Z,16.37
2019-04-21T15:35:29.031Z,16.77
2019-04-21T15:38:01.974Z,15.25
2019-04-21T15:40:40.684Z,13.78
2019-04-21T15:43:06.835Z,14.45
2019-04-21T15:45:37.102Z,12.90
2019-04-21T15:48:11.981Z,12.05
2019-04-21T15:50:44.121Z,15.25
2019-04-21T15:53:16.022Z,15.78
2019-04-21T15:56:23.119Z,15.58
2019-04-21T15:59:12.634Z,13.48
2019-04-21T16:01:57.082Z,14.75
2019-04-21T16:04:30.729Z,14.47
2019-04-21T16:07:01.650Z,13.88
2019-04-21T16:09:37.555Z,13.68
2019-04-21T16:12:07.648Z,15.50
2019-04-21T16:14:38.660Z,13.83
2019-04-21T16:17:09.566Z,14.45
2019-04-21T16:19:41.612Z,13.05
2019-04-21T16:22:12.967Z,13.95
2019-04-21T16:24:43.892Z,12.58
2019-04-21T16:27:17.420Z,16.00
2019-04-21T16:29:47.925Z,13.08
2019-04-21T16:32:19.686Z,12.20
2019-04-21T16:34:54.220Z,11.38
2019-04-21T16:37:19.552Z,14.00
2019-04-21T16:39:49.548Z,10.75
2019-04-21T16:42:20.469Z,11.97
2019-04-21T16:44:49.968Z,13.30
2019-04-21T16:47:19.458Z,9.98
2019-04-21T16:49:49.845Z,11.68
2019-04-21T16:52:34.199Z,13.05
2019-04-21T16:55:23.214Z,11.57
2019-04-21T16:58:04.246Z,12.10
2019-04-21T17:00:40.160Z,13.20
2019-04-21T17:03:00.683Z,9.48
2019-04-21T17:05:30.193Z,12.85
2019-04-21T17:07:59.739Z,11.15
2019-04-21T17:10:30.640Z,13.45
2019-04-21T17:13:00.057Z,12.53
2019-04-21T17:16:25.337Z,11.93
2019-04-21T17:18:20.583Z,12.95
2019-04-21T17:20:43.119Z,12.80
2019-04-21T17:23:04.008Z,12.15
2019-04-21T17:25:34.059Z,12.58
2019-04-21T17:28:03.625Z,10.68
2019-04-21T17:30:32.954Z,14.18
2019-04-21T17:33:03.555Z,12.82
2019-04-21T17:35:33.248Z,14.73
2019-04-21T17:38:03.893Z,13.25
2019-04-21T17:40:33.850Z,13.32
2019-04-21T17:43:07.563Z,13.32
2019-04-21T17:45:35.222Z,11.97
2019-04-21T17:48:10.345Z,12.58
2019-04-21T17:50:59.295Z,12.60
2019-04-21T17:56:46.406Z,10.15
2019-04-21T17:59:02.861Z,9.58
2019-04-21T18:01:40.454Z,9.30
2019-04-21T18:04:10.794Z,11.00
2019-04-21T18:06:59.355Z,13.50
2019-04-21T18:09:47.074Z,10.08
2019-04-21T18:12:07.713Z,13.38
2019-04-21T18:14:21.866Z,9.93
2019-04-21T18:16:53.325Z,10.13
2019-04-21T18:19:26.764Z,10.98
2019-04-21T18:22:03.307Z,10.50
2019-04-21T18:24:42.804Z,12.30
2019-04-21T18:27:07.456Z,10.58
2019-04-21T18:29:36.588Z,14.20
2019-04-21T18:32:06.455Z,15.20
2019-04-21T18:34:59.676Z,13.88
2019-04-21T18:38:01.601Z,10.03
2019-04-21T18:40:27.985Z,12.13
2019-04-21T18:43:35.642Z,10.23
2019-04-21T18:46:00.668Z,12.13
2019-04-21T18:48:34.888Z,11.22
2019-04-21T18:51:20.873Z,10.75
2019-04-21T18:54:20.944Z,12.10
2019-04-21T18:56:33.622Z,11.43
2019-04-21T18:59:04.454Z,13.28
2019-04-21T19:01:36.523Z,18.62
2019-04-21T19:04:12.468Z,18.73
2019-04-21T19:06:54.617Z,23.15
2019-04-21T19:09:35.552Z,27.98
2019-04-21T19:12:05.295Z,27.95
2019-04-21T19:14:36.213Z,31.60
2019-04-21T19:17:15.975Z,28.80
2019-04-21T19:22:09.165Z,31.23
2019-04-21T19:24:41.299Z,34.48
2019-04-21T19:27:12.704Z,29.47
2019-04-21T19:29:42.596Z,31.77
2019-04-21T19:32:14.944Z,36.23
2019-04-21T19:34:29.353Z,35.60
2019-04-21T19:37:00.919Z,32.10
2019-04-21T19:39:39.256Z,30.55
2019-04-21T19:42:08.613Z,30.52
2019-04-21T19:44:49.448Z,36.30
2019-04-21T19:47:24.249Z,32.83
2019-04-21T19:49:49.503Z,34.00
2019-04-21T19:52:09.413Z,46.60
2019-04-21T19:54:37.924Z,86.15
2019-04-21T19:57:04.914Z,33.30
2019-04-21T19:59:40.695Z,34.05
2019-04-21T20:02:06.957Z,28.52
2019-04-21T20:04:42.805Z,29.40
2019-04-21T20:07:22.990Z,30.05
2019-04-21T20:09:55.842Z,26.77
2019-04-21T20:12:36.922Z,26.73
2019-04-21T20:15:05.603Z,26.15
2019-04-21T20:17:31.141Z,25.40
2019-04-21T20:19:44.454Z,26.23
2019-04-21T20:22:14.747Z,26.82
2019-04-21T20:24:50.091Z,25.75
2019-04-21T20:27:24.032Z,28.02
2019-04-21T20:30:04.017Z,27.98
2019-04-21T20:32:38.233Z,27.67
2019-04-21T20:35:07.574Z,31.80
2019-04-21T20:37:37.293Z,31.23
2019-04-21T20:39:58.519Z,35.38
2019-04-21T20:42:40.226Z,35.73
2019-04-21T20:47:36.706Z,39.33
2019-04-21T20:50:08.141Z,39.70
2019-04-21T20:52:47.870Z,40.25
2019-04-21T20:55:11.951Z,36.68
2019-04-21T20:57:41.862Z,36.70
2019-04-21T21:00:19.267Z,30.48
2019-04-21T21:02:58.266Z,30.20
2019-04-21T21:05:19.073Z,34.23
2019-04-21T21:07:55.891Z,29.42
2019-04-21T21:10:20.574Z,28.40
2019-04-21T21:12:57.667Z,33.00
2019-04-21T21:15:25.246Z,26.73
2019-04-21T21:18:06.231Z,30.48
2019-04-21T21:20:30.829Z,29.07
2019-04-21T21:22:56.172Z,27.17
2019-04-21T21:25:41.363Z,28.15
2019-04-21T21:27:55.166Z,28.65
2019-04-21T21:30:30.013Z,25.90
2019-04-21T21:33:11.398Z,30.40
2019-04-21T21:35:29.598Z,26.47
2019-04-21T21:38:08.291Z,28.73
2019-04-21T21:40:35.985Z,27.87
2019-04-21T21:42:55.220Z,33.48
2019-04-21T21:45:27.514Z,28.05
2019-04-21T21:48:16.082Z,29.75
2019-04-21T21:50:38.677Z,30.12
2019-04-21T21:53:04.195Z,31.07
2019-04-21T21:55:32.243Z,34.38
2019-04-21T21:58:03.499Z,33.42
2019-04-21T22:00:32.314Z,32.20
2019-04-21T22:03:10.534Z,33.53
2019-04-21T22:05:42.336Z,36.07
2019-04-21T22:08:04.733Z,33.55
2019-04-21T22:10:34.927Z,36.83
2019-04-21T22:13:09.650Z,39.58
2019-04-21T22:15:35.748Z,28.67
2019-04-21T22:18:27.371Z,37.13
2019-04-21T22:20:55.968Z,37.45
2019-04-21T22:23:13.327Z,36.58
2019-04-21T22:25:41.846Z,41.50
2019-04-21T22:28:09.725Z,39.35
2019-04-21T22:30:44.203Z,39.75
2019-04-21T22:33:13.758Z,40.03
2019-04-21T22:35:46.260Z,39.63
2019-04-21T22:38:27.296Z,40.95
2019-04-21T22:40:55.205Z,41.88
2019-04-21T22:43:24.574Z,41.18
2019-04-21T22:45:45.430Z,45.20
2019-04-21T22:48:18.207Z,41.37
2019-04-21T22:50:46.606Z,41.48
2019-04-21T22:53:17.885Z,42.15
2019-04-21T22:55:49.557Z,41.45
2019-04-21T22:58:28.252Z,44.70
2019-04-21T23:00:54.809Z,41.63
2019-04-21T23:03:24.430Z,41.63
2019-04-21T23:05:53.585Z,43.25
2019-04-21T23:08:31.970Z,44.53
2019-04-21T23:11:00.789Z,43.40
2019-04-21T23:13:27.260Z,43.52
2019-04-21T23:15:59.046Z,46.05
2019-04-21T23:18:42.292Z,43.75
2019-04-21T23:21:13.526Z,49.27
2019-04-21T23:23:52.455Z,44.38
2019-04-21T23:26:21.018Z,42.70
2019-04-21T23:28:55.749Z,45.90
2019-04-21T23:31:27.227Z,44.07
2019-04-21T23:33:34.749Z,43.63
2019-04-21T23:36:12.931Z,46.28
2019-04-21T23:38:43.531Z,43.10
2019-04-21T23:41:09.580Z,42.98
2019-04-21T23:43:38.952Z,44.08
2019-04-21T23:46:18.824Z,47.05
2019-04-21T23:48:57.875Z,47.38
2019-04-21T23:51:21.810Z,43.38
2019-04-21T23:53:41.659Z,45.23
2019-04-21T23:56:14.684Z,46.00
2019-04-21T23:58:44.919Z,42.17
